Time;durP1;ratioP1;P1;durP2;ratioP2;P2;SDS_P1;SDS_P2;PMS_P1;PMS_P2;Temp;Humidity;BMP_temperature;BMP_pressure;BME280_temperature;BME280_humidity;BME280_pressure;Samples;Min_cycle;Max_cycle;Signal;HPM_P1;HPM_P2
2022/12/16 00:01:20;;;;;;;46.50;23.83;;;0.10;99.90;;;;;;5015786;28;20033;-66
2022/12/16 00:03:48;;;;;;;49.03;22.58;;;0.10;99.90;;;;;;5014129;28;20081;-69
2022/12/16 00:06:18;;;;;;;46.53;22.88;;;0.10;99.90;;;;;;5016104;28;20049;-66
2022/12/16 00:08:46;;;;;;;50.33;23.05;;;0.10;99.90;;;;;;5015423;28;20592;-65
2022/12/16 00:11:13;;;;;;;48.13;21.70;;;0.10;99.90;;;;;;5014715;28;20657;-66
2022/12/16 00:13:40;;;;;;;46.50;23.00;;;0.10;99.90;;;;;;5011325;28;20047;-63
2022/12/16 00:16:12;;;;;;;47.20;22.90;;;0.10;99.90;;;;;;5013390;28;20373;-64
2022/12/16 00:18:39;;;;;;;46.38;23.13;;;0.10;99.90;;;;;;5013842;28;20124;-67
2022/12/16 00:21:07;;;;;;;48.42;22.55;;;0.10;99.90;;;;;;5012601;28;20193;-64
2022/12/16 00:23:34;;;;;;;44.28;22.65;;;0.20;99.90;;;;;;5011607;28;20317;-65
2022/12/16 00:26:02;;;;;;;50.80;24.45;;;0.20;99.90;;;;;;5012014;28;20064;-64
2022/12/16 00:28:28;;;;;;;;;;;0.20;99.90;;;;;;5011798;28;20107;-66
2022/12/16 00:30:56;;;;;;;52.75;23.38;;;0.20;99.90;;;;;;5010665;28;19925;-64
2022/12/16 00:33:25;;;;;;;49.65;23.10;;;0.20;99.90;;;;;;5011216;28;20037;-64
2022/12/16 00:35:53;;;;;;;48.13;21.90;;;0.20;99.90;;;;;;5014096;28;20045;-65
2022/12/16 00:38:21;;;;;;;47.85;22.10;;;0.20;99.90;;;;;;5012456;28;20340;-66
2022/12/16 00:40:48;;;;;;;49.90;23.98;;;0.20;99.90;;;;;;5013643;28;20052;-64
2022/12/16 00:43:19;;;;;;;48.88;23.15;;;0.20;99.90;;;;;;5013057;28;20057;-66
2022/12/16 00:45:46;;;;;;;50.17;24.02;;;0.20;99.90;;;;;;5008644;28;20049;-65
2022/12/16 00:48:13;;;;;;;50.45;22.83;;;0.20;99.90;;;;;;5012701;28;20049;-64
2022/12/16 00:50:43;;;;;;;52.65;22.40;;;0.20;99.90;;;;;;5012380;28;20077;-66
2022/12/16 00:53:10;;;;;;;46.22;22.05;;;0.20;99.90;;;;;;5012229;28;20123;-66
2022/12/16 00:55:36;;;;;;;46.17;22.13;;;0.20;99.90;;;;;;5011668;28;20049;-67
2022/12/16 00:58:03;;;;;;;;;;;0.20;99.90;;;;;;5015046;28;20045;-65
2022/12/16 01:00:30;;;;;;;49.72;22.05;;;0.20;99.90;;;;;;5016162;28;19931;-67
2022/12/16 01:02:57;;;;;;;46.15;22.05;;;0.20;99.90;;;;;;5015124;28;20905;-64
2022/12/16 01:05:27;;;;;;;45.53;21.92;;;0.20;99.90;;;;;;5017520;28;20140;-66
2022/12/16 01:07:54;;;;;;;43.95;21.20;;;0.20;99.90;;;;;;5018495;28;20056;-64
2022/12/16 01:10:23;;;;;;;51.33;23.70;;;0.20;99.90;;;;;;5013756;28;20341;-65
2022/12/16 01:12:51;;;;;;;40.00;20.75;;;0.20;99.90;;;;;;5017291;28;20499;-66
2022/12/16 01:15:18;;;;;;;44.33;21.77;;;0.20;99.90;;;;;;5016065;28;20052;-67
2022/12/16 01:17:45;;;;;;;48.25;21.42;;;0.20;99.90;;;;;;5016750;28;20045;-64
2022/12/16 01:20:13;;;;;;;42.65;20.35;;;0.20;99.90;;;;;;5017356;28;20045;-65
2022/12/16 01:22:40;;;;;;;47.42;21.05;;;0.20;99.90;;;;;;5017137;28;20052;-66
2022/12/16 01:25:09;;;;;;;43.72;19.73;;;0.10;99.90;;;;;;5016639;28;20078;-66
2022/12/16 01:27:35;;;;;;;37.78;19.15;;;0.20;99.90;;;;;;5015537;28;21096;-65
2022/12/16 01:30:02;;;;;;;;;;;0.20;99.90;;;;;;5017377;28;20102;-64
2022/12/16 01:32:29;;;;;;;39.13;18.20;;;0.20;99.90;;;;;;5015144;28;20302;-64
2022/12/16 01:34:56;;;;;;;28.58;14.48;;;0.20;99.90;;;;;;5016788;28;20707;-65
2022/12/16 01:37:22;;;;;;;;;;;0.20;99.90;;;;;;5020058;28;20511;-66
2022/12/16 01:39:49;;;;;;;30.42;15.35;;;0.10;99.90;;;;;;5017684;28;20354;-66
2022/12/16 01:42:20;;;;;;;30.85;16.95;;;0.20;99.90;;;;;;5015335;28;20049;-66
2022/12/16 01:44:50;;;;;;;33.45;17.98;;;0.20;99.90;;;;;;5017214;28;20507;-67
2022/12/16 01:47:29;;;;;;;33.95;17.65;;;0.20;99.90;;;;;;5017920;28;20056;-66
2022/12/16 01:50:02;;;;;;;35.15;18.65;;;0.20;99.90;;;;;;5016055;28;20076;-64
2022/12/16 01:52:36;;;;;;;29.70;16.17;;;0.20;99.90;;;;;;5015356;28;20049;-65
2022/12/16 01:55:20;;;;;;;32.28;16.35;;;0.20;99.90;;;;;;5015136;28;20069;-64
2022/12/16 01:58:12;;;;;;;33.10;15.82;;;0.20;99.90;;;;;;5015733;28;20120;-66
2022/12/16 02:00:40;;;;;;;26.83;14.23;;;0.20;99.90;;;;;;5010307;28;20132;-65
2022/12/16 02:03:08;;;;;;;28.13;13.55;;;0.20;99.90;;;;;;5014338;28;20569;-66
2022/12/16 02:05:38;;;;;;;25.52;14.00;;;0.20;99.90;;;;;;5016041;28;20057;-65
2022/12/16 02:08:05;;;;;;;27.70;14.88;;;0.20;99.90;;;;;;5014679;28;20045;-64
2022/12/16 02:10:41;;;;;;;30.33;16.40;;;0.20;99.90;;;;;;5017901;28;20081;-65
2022/12/16 02:13:25;;;;;;;29.17;15.27;;;0.20;99.90;;;;;;5015897;28;20485;-66
2022/12/16 02:15:57;;;;;;;24.92;14.70;;;0.20;99.90;;;;;;5012729;28;20041;-63
2022/12/16 02:18:35;;;;;;;26.75;14.23;;;0.20;99.90;;;;;;5015416;28;20255;-63
2022/12/16 02:21:29;;;;;;;27.27;14.65;;;0.20;99.90;;;;;;5015745;28;20042;-65
2022/12/16 02:24:34;;;;;;;26.20;14.77;;;0.30;99.90;;;;;;5017541;28;20056;-66
2022/12/16 02:27:06;;;;;;;24.85;13.70;;;0.30;99.90;;;;;;5015418;28;20061;-64
2022/12/16 02:30:05;;;;;;;32.33;16.48;;;0.30;99.90;;;;;;5016346;28;20498;-65
2022/12/16 02:32:50;;;;;;;29.83;16.20;;;0.30;99.90;;;;;;5014308;28;20135;-67
2022/12/16 02:35:46;;;;;;;23.20;13.27;;;0.30;99.90;;;;;;5015646;28;20132;-67
2022/12/16 02:38:13;;;;;;;21.83;13.25;;;0.30;99.90;;;;;;5014588;28;20106;-67
2022/12/16 02:40:50;;;;;;;27.67;13.38;;;0.20;99.90;;;;;;5013129;28;20116;-63
2022/12/16 02:43:26;;;;;;;25.90;14.57;;;0.20;99.90;;;;;;5016982;28;20045;-67
2022/12/16 02:45:53;;;;;;;25.38;13.52;;;0.20;99.90;;;;;;5014660;28;20048;-64
2022/12/16 02:48:21;;;;;;;24.25;14.88;;;0.20;99.90;;;;;;5012224;28;20605;-66
2022/12/16 02:50:51;;;;;;;;;;;0.20;99.90;;;;;;5015744;28;20065;-66
2022/12/16 02:53:19;;;;;;;34.67;16.52;;;0.20;99.90;;;;;;5014356;28;19930;-64
2022/12/16 02:56:19;;;;;;;29.75;15.27;;;0.20;99.90;;;;;;5015457;28;20338;-65
2022/12/16 02:59:18;;;;;;;31.08;16.38;;;0.20;99.90;;;;;;5013761;28;20140;-64
2022/12/16 03:02:04;;;;;;;34.15;17.95;;;0.30;99.90;;;;;;5011988;28;20677;-64
2022/12/16 03:04:40;;;;;;;32.67;18.00;;;0.20;99.90;;;;;;5013543;28;20115;-65
2022/12/16 03:07:11;;;;;;;37.38;18.95;;;0.20;99.90;;;;;;5027622;28;20632;-66
2022/12/16 03:09:38;;;;;;;36.47;18.95;;;0.20;99.90;;;;;;5014229;28;20080;-63
2022/12/16 03:12:11;;;;;;;39.58;20.88;;;0.20;99.90;;;;;;5013657;28;20053;-66
2022/12/16 03:14:41;;;;;;;42.05;19.67;;;0.20;99.90;;;;;;5013828;28;20325;-63
2022/12/16 03:17:09;;;;;;;35.03;20.45;;;0.20;99.90;;;;;;5014938;28;20489;-66
2022/12/16 03:19:40;;;;;;;37.28;19.33;;;0.20;99.90;;;;;;5015945;28;20045;-66
2022/12/16 03:22:16;;;;;;;38.58;20.40;;;0.20;99.90;;;;;;5015034;28;20120;-64
2022/12/16 03:24:42;;;;;;;35.60;18.38;;;0.20;99.90;;;;;;5015366;28;20455;-66
2022/12/16 03:27:20;;;;;;;;;;;0.20;99.90;;;;;;5011215;28;20133;-66
2022/12/16 03:29:59;;;;;;;34.50;18.55;;;0.20;99.90;;;;;;5013415;28;20449;-63
2022/12/16 03:32:37;;;;;;;32.67;18.23;;;0.20;99.90;;;;;;5015257;28;20574;-68
2022/12/16 03:35:33;;;;;;;40.70;21.00;;;0.20;99.90;;;;;;5014957;28;20049;-67
2022/12/16 03:38:03;;;;;;;34.17;17.83;;;0.20;99.90;;;;;;5005962;28;20050;-65
2022/12/16 03:40:31;;;;;;;32.45;17.55;;;0.10;99.90;;;;;;5015345;28;20166;-66
2022/12/16 03:43:00;;;;;;;29.45;17.67;;;0.10;99.90;;;;;;5014115;28;20517;-66
2022/12/16 03:45:34;;;;;;;29.20;16.88;;;0.10;99.90;;;;;;5013537;28;20621;-65
2022/12/16 03:48:01;;;;;;;28.40;16.33;;;0.10;99.90;;;;;;5010838;28;20068;-64
2022/12/16 03:50:31;;;;;;;;;;;0.10;99.90;;;;;;5013520;28;20187;-65
2022/12/16 03:52:58;;;;;;;31.60;15.88;;;0.10;99.90;;;;;;5012479;28;20369;-65
2022/12/16 03:55:25;;;;;;;30.75;16.50;;;0.10;99.90;;;;;;5012899;28;20473;-66
2022/12/16 03:57:52;;;;;;;30.58;17.10;;;0.10;99.90;;;;;;5011876;28;20138;-64
2022/12/16 04:00:19;;;;;;;32.90;19.23;;;0.10;99.90;;;;;;5010933;28;20059;-66
2022/12/16 04:02:46;;;;;;;32.72;18.08;;;0.10;99.90;;;;;;5013953;28;20081;-67
2022/12/16 04:05:14;;;;;;;27.92;15.73;;;0.10;99.90;;;;;;5012710;28;20084;-67
2022/12/16 04:07:41;;;;;;;33.83;18.15;;;0.10;99.90;;;;;;5014978;28;20136;-66
2022/12/16 04:10:08;;;;;;;;;;;0.10;99.90;;;;;;5012691;28;20099;-67
2022/12/16 04:29:22;;;;;;;29.13;16.42;;;0.10;99.90;;;;;;5013070;28;20053;-63
2022/12/16 04:31:50;;;;;;;29.95;15.52;;;0.10;99.90;;;;;;5013199;28;20499;-67
2022/12/16 04:34:28;;;;;;;30.10;15.90;;;0.10;99.90;;;;;;5014607;28;20134;-64
